Time;durP1;ratioP1;P1;durP2;ratioP2;P2;SDS_P1;SDS_P2;PMS_P1;PMS_P2;Temp;Humidity;BMP_temperature;BMP_pressure;BME280_temperature;BME280_humidity;BME280_pressure;Samples;Min_cycle;Max_cycle;Signal;HPM_P1;HPM_P2
2021/12/22 00:00:17;;;;;;;19.77;11.85;;;;;;;;;;4993849;28;20057;-67
2021/12/22 00:02:46;;;;;;;21.27;12.60;;;;;;;;;;4993478;28;20432;-68
2021/12/22 00:05:26;;;;;;;28.67;12.93;;;;;;;;;;4992602;28;20049;-67
2021/12/22 00:07:52;;;;;;;20.42;12.55;;;;;;;;;;4982988;28;20033;-68
2021/12/22 00:10:19;;;;;;;20.98;13.13;;;;;;;;;;4997063;28;20045;-68
2021/12/22 00:12:44;;;;;;;20.92;12.63;;;;;;;;;;4998344;28;20157;-67
2021/12/22 00:15:10;;;;;;;19.45;11.68;;;;;;;;;;4997622;28;20113;-67
2021/12/22 00:17:35;;;;;;;17.80;11.98;;;;;;;;;;4998645;28;20058;-67
2021/12/22 00:20:00;;;;;;;20.65;13.05;;;;;;;;;;4998550;28;20105;-67
2021/12/22 00:22:26;;;;;;;19.42;12.32;;;;;;;;;;4999243;28;20096;-67
2021/12/22 00:24:51;;;;;;;21.15;12.73;;;;;;;;;;4999225;28;20460;-67
2021/12/22 00:27:16;;;;;;;20.98;13.27;;;;;;;;;;4996834;28;20468;-66
2021/12/22 00:29:46;;;;;;;22.50;13.57;;;;;;;;;;4998176;28;20064;-67
2021/12/22 00:32:15;;;;;;;18.50;12.25;;;;;;;;;;4998706;28;20551;-67
2021/12/22 00:34:49;;;;;;;24.67;13.82;;;;;;;;;;4998031;28;20045;-66
2021/12/22 00:37:19;;;;;;;19.30;11.90;;;;;;;;;;4996648;28;20019;-67
2021/12/22 00:39:44;;;;;;;17.92;12.13;;;;;;;;;;4999936;28;20459;-66
2021/12/22 00:42:11;;;;;;;23.15;14.05;;;;;;;;;;4999097;28;20026;-67
2021/12/22 00:44:37;;;;;;;24.90;14.05;;;;;;;;;;4997288;28;20061;-67
2021/12/22 00:47:03;;;;;;;23.80;13.18;;;;;;;;;;4999120;28;20543;-70
2021/12/22 00:49:28;;;;;;;18.77;12.82;;;;;;;;;;4998469;28;20057;-66
2021/12/22 00:51:54;;;;;;;23.00;13.52;;;;;;;;;;5000186;28;20069;-67
2021/12/22 00:54:19;;;;;;;22.33;12.85;;;;;;;;;;4998726;28;20412;-67
2021/12/22 00:56:44;;;;;;;27.00;14.43;;;;;;;;;;4998939;28;20037;-67
2021/12/22 00:59:10;;;;;;;21.02;12.95;;;;;;;;;;4998625;28;20057;-67
2021/12/22 01:01:35;;;;;;;26.83;14.15;;;;;;;;;;4997863;28;20070;-67
2021/12/22 01:04:00;;;;;;;24.33;13.30;;;;;;;;;;4999482;28;20049;-67
2021/12/22 01:06:26;;;;;;;20.50;13.18;;;;;;;;;;4998656;28;20029;-67
2021/12/22 01:08:52;;;;;;;22.73;13.30;;;;;;;;;;4997605;28;20121;-67
2021/12/22 01:11:17;;;;;;;19.23;12.52;;;;;;;;;;4998658;28;20040;-67
2021/12/22 01:13:42;;;;;;;22.88;12.68;;;;;;;;;;4997868;28;20034;-67
2021/12/22 01:16:08;;;;;;;19.52;12.80;;;;;;;;;;4998916;28;20484;-67
2021/12/22 01:18:35;;;;;;;23.30;13.50;;;;;;;;;;4999152;28;20054;-66
2021/12/22 01:21:15;;;;;;;21.00;12.93;;;;;;;;;;4998820;28;20030;-66
2021/12/22 01:23:59;;;;;;;20.13;12.90;;;;;;;;;;4998762;28;20550;-67
2021/12/22 01:26:25;;;;;;;20.20;13.52;;;;;;;;;;4997997;28;20068;-67
2021/12/22 01:28:50;;;;;;;21.38;13.60;;;;;;;;;;4998351;28;20069;-67
2021/12/22 01:31:17;;;;;;;21.48;13.40;;;;;;;;;;4997491;28;20065;-67
2021/12/22 01:33:42;;;;;;;21.75;14.13;;;;;;;;;;4998102;28;20026;-67
2021/12/22 01:36:07;;;;;;;22.42;13.85;;;;;;;;;;4997122;28;20626;-67
2021/12/22 01:38:33;;;;;;;21.05;12.85;;;;;;;;;;4997933;28;20395;-69
2021/12/22 01:40:58;;;;;;;19.33;12.75;;;;;;;;;;4998233;28;20021;-67
2021/12/22 01:43:23;;;;;;;22.67;13.23;;;;;;;;;;4998254;28;20025;-67
2021/12/22 01:51:48;;;;;;;21.63;13.50;;;;;;;;;;4996957;28;20547;-67
2021/12/22 01:54:13;;;;;;;21.48;13.02;;;;;;;;;;4998420;28;20062;-67
2021/12/22 01:56:39;;;;;;;25.05;14.55;;;;;;;;;;4993947;28;20661;-66
2021/12/22 01:59:06;;;;;;;23.20;13.43;;;;;;;;;;4995810;28;20448;-67
2021/12/22 02:01:35;;;;;;;24.65;14.90;;;;;;;;;;4994178;28;20033;-66
2021/12/22 02:04:01;;;;;;;24.92;14.55;;;;;;;;;;4994303;28;20030;-67
2021/12/22 02:06:27;;;;;;;22.13;13.55;;;;;;;;;;4995373;28;20034;-67
2021/12/22 02:08:53;;;;;;;23.98;13.18;;;;;;;;;;4997250;28;20116;-67
2021/12/22 02:11:18;;;;;;;20.63;13.18;;;;;;;;;;4997854;28;20026;-67
2021/12/22 02:13:48;;;;;;;20.25;13.93;;;;;;;;;;4996654;28;20022;-67
2021/12/22 02:16:16;;;;;;;23.83;13.10;;;;;;;;;;4995893;28;20488;-67
2021/12/22 02:18:45;;;;;;;22.50;13.20;;;;;;;;;;4998108;28;20030;-67
2021/12/22 02:21:10;;;;;;;23.15;13.20;;;;;;;;;;4980561;28;20052;-67
2021/12/22 02:23:36;;;;;;;22.08;13.23;;;;;;;;;;4996314;28;20767;-67
2021/12/22 02:26:09;;;;;;;24.15;13.13;;;;;;;;;;4995812;28;20556;-67
2021/12/22 02:28:37;;;;;;;26.33;15.18;;;;;;;;;;4993422;28;20028;-66
2021/12/22 02:31:02;;;;;;;25.63;15.13;;;;;;;;;;4993978;28;20092;-67
2021/12/22 02:33:39;;;;;;;28.20;15.95;;;;;;;;;;4994271;28;20477;-67
2021/12/22 02:38:41;;;;;;;23.52;14.70;;;;;;;;;;4997812;28;20141;-67
2021/12/22 02:41:09;;;;;;;21.33;13.60;;;;;;;;;;4997415;28;20365;-67
2021/12/22 02:43:42;;;;;;;23.17;15.20;;;;;;;;;;4995249;28;20033;-67
2021/12/22 02:46:07;;;;;;;22.95;13.63;;;;;;;;;;4995293;28;20032;-67
2021/12/22 02:48:33;;;;;;;22.30;14.30;;;;;;;;;;4995041;28;20155;-67
2021/12/22 02:51:00;;;;;;;25.70;15.50;;;;;;;;;;4995093;28;20053;-67
2021/12/22 02:53:31;;;;;;;24.27;14.48;;;;;;;;;;4992952;28;20026;-67
2021/12/22 02:56:05;;;;;;;22.15;14.52;;;;;;;;;;4996571;28;20537;-67
2021/12/22 02:58:42;;;;;;;25.30;14.85;;;;;;;;;;4996202;28;20153;-67
2021/12/22 03:01:24;;;;;;;22.67;15.07;;;;;;;;;;4995749;28;20030;-66
2021/12/22 03:04:01;;;;;;;25.77;15.45;;;;;;;;;;4996339;28;20044;-67
2021/12/22 03:06:37;;;;;;;22.30;13.80;;;;;;;;;;4996320;28;20038;-67
2021/12/22 03:09:21;;;;;;;21.60;14.02;;;;;;;;;;4994992;28;20018;-67
2021/12/22 03:11:46;;;;;;;23.03;14.53;;;;;;;;;;4997229;28;20022;-66
2021/12/22 03:14:12;;;;;;;24.95;15.10;;;;;;;;;;4995649;28;20278;-67
2021/12/22 03:16:38;;;;;;;26.27;14.63;;;;;;;;;;4995354;28;20037;-67
2021/12/22 03:19:03;;;;;;;24.40;15.13;;;;;;;;;;4994743;28;20034;-67
2021/12/22 03:21:28;;;;;;;25.90;15.55;;;;;;;;;;4994520;28;20397;-67
2021/12/22 03:23:55;;;;;;;23.58;14.40;;;;;;;;;;4995242;28;21028;-67
2021/12/22 03:26:22;;;;;;;22.27;13.90;;;;;;;;;;4996583;28;20104;-66
2021/12/22 03:28:48;;;;;;;28.67;14.55;;;;;;;;;;4994993;28;20022;-67
2021/12/22 03:31:14;;;;;;;25.42;13.85;;;;;;;;;;4994727;28;20026;-66
2021/12/22 03:33:39;;;;;;;24.52;14.38;;;;;;;;;;4996095;28;20034;-67
2021/12/22 03:36:05;;;;;;;24.15;15.25;;;;;;;;;;4997333;28;20080;-67
2021/12/22 03:38:32;;;;;;;24.05;14.65;;;;;;;;;;4995471;28;20034;-66
2021/12/22 03:40:57;;;;;;;22.60;14.25;;;;;;;;;;4999052;28;20615;-67
2021/12/22 03:43:22;;;;;;;24.45;14.57;;;;;;;;;;5000719;28;20104;-66
2021/12/22 03:45:48;;;;;;;25.88;14.38;;;;;;;;;;4999394;28;20045;-67
2021/12/22 03:48:16;;;;;;;23.20;14.85;;;;;;;;;;5000256;28;20097;-66
2021/12/22 03:50:42;;;;;;;21.75;13.88;;;;;;;;;;5000274;28;20376;-66
2021/12/22 03:53:07;;;;;;;23.73;14.05;;;;;;;;;;4999804;28;20022;-67
2021/12/22 03:55:32;;;;;;;27.60;14.88;;;;;;;;;;4999502;28;20054;-67
2021/12/22 03:57:58;;;;;;;23.40;13.73;;;;;;;;;;5000346;28;20061;-66
2021/12/22 04:00:23;;;;;;;25.05;14.30;;;;;;;;;;4998298;28;20065;-67
2021/12/22 04:02:48;;;;;;;23.38;14.18;;;;;;;;;;5000420;28;20469;-67
2021/12/22 04:05:14;;;;;;;22.90;14.52;;;;;;;;;;5000184;28;20511;-66
2021/12/22 04:07:39;;;;;;;22.80;13.65;;;;;;;;;;5001057;28;20017;-66
2021/12/22 04:10:19;;;;;;;21.90;14.48;;;;;;;;;;5000234;28;20049;-67
2021/12/22 04:12:45;;;;;;;24.02;13.52;;;;;;;;;;5001395;28;20026;-66
2021/12/22 04:15:10;;;;;;;25.27;14.68;;;;;;;;;;4982963;28;20407;-67
2021/12/22 04:17:35;;;;;;;21.95;14.25;;;;;;;;;;5000227;28;20034;-67
2021/12/22 04:20:00;;;;;;;21.20;14.27;;;;;;;;;;4999200;28;20034;-66
2021/12/22 04:22:26;;;;;;;27.85;15.85;;;;;;;;;;5000140;28;20037;-67
2021/12/22 04:24:51;;;;;;;24.38;14.15;;;;;;;;;;4998061;28;20031;-66
2021/12/22 04:27:16;;;;;;;28.30;15.48;;;;;;;;;;4997034;28;20059;-67
2021/12/22 04:29:42;;;;;;;29.42;15.75;;;;;;;;;;4996344;28;20141;-66
2021/12/22 04:32:07;;;;;;;25.67;15.15;;;;;;;;;;4996468;28;20076;-67
2021/12/22 04:34:32;;;;;;;23.85;13.68;;;;;;;;;;4997441;28;20022;-66
2021/12/22 04:36:58;;;;;;;25.55;14.18;;;;;;;;;;4996458;28;20041;-66
2021/12/22 04:39:25;;;;;;;27.85;16.10;;;;;;;;;;4999910;28;20057;-66
2021/12/22 04:41:51;;;;;;;22.80;14.15;;;;;;;;;;4997422;28;20452;-67
2021/12/22 04:44:16;;;;;;;27.90;16.50;;;;;;;;;;4999629;28;20053;-68
2021/12/22 04:46:41;;;;;;;27.48;15.18;;;;;;;;;;4998484;28;20069;-68
2021/12/22 04:49:07;;;;;;;26.38;15.68;;;;;;;;;;4997305;28;20049;-68
2021/12/22 04:51:34;;;;;;;26.42;14.60;;;;;;;;;;4999071;28;20036;-68
2021/12/22 04:54:12;;;;;;;30.42;16.35;;;;;;;;;;4998101;28;20132;-68
2021/12/22 04:56:39;;;;;;;25.80;16.42;;;;;;;;;;4997142;28;20278;-68
2021/12/22 04:59:04;;;;;;;26.17;15.55;;;;;;;;;;4997968;28;21048;-68
2021/12/22 05:01:30;;;;;;;27.55;16.02;;;;;;;;;;4995978;28;20041;-71
2021/12/22 05:03:56;;;;;;;33.75;16.08;;;;;;;;;;4998159;28;20061;-69
2021/12/22 05:06:22;;;;;;;27.50;16.70;;;;;;;;;;4996378;28;20030;-69
2021/12/22 05:08:47;;;;;;;26.45;15.55;;;;;;;;;;4998451;28;20038;-69
2021/12/22 05:11:13;;;;;;;27.83;16.48;;;;;;;;;;4998034;28;20565;-69
2021/12/22 05:13:38;;;;;;;28.23;16.17;;;;;;;;;;4998001;28;20113;-69
2021/12/22 05:16:05;;;;;;;30.95;17.80;;;;;;;;;;4996834;28;20121;-69
2021/12/22 05:21:28;;;;;;;27.23;15.57;;;;;;;;;;4977518;28;20097;-69
2021/12/22 05:23:54;;;;;;;29.08;16.10;;;;;;;;;;4993552;28;20477;-69
2021/12/22 05:26:20;;;;;;;27.27;15.57;;;;;;;;;;4995715;28;20431;-69
2021/12/22 05:28:45;;;;;;;28.50;16.25;;;;;;;;;;4997440;28;20044;-69
2021/12/22 05:31:10;;;;;;;29.27;17.15;;;;;;;;;;4998181;28;20544;-69
2021/12/22 05:33:36;;;;;;;29.73;16.88;;;;;;;;;;4995864;28;20082;-69
2021/12/22 05:36:01;;;;;;;29.15;17.20;;;;;;;;;;4981083;28;20124;-69
2021/12/22 05:38:26;;;;;;;27.02;16.85;;;;;;;;;;4996078;28;20188;-69
2021/12/22 05:40:52;;;;;;;29.40;17.17;;;;;;;;;;4999245;28;20055;-69
2021/12/22 05:43:17;;;;;;;33.33;17.02;;;;;;;;;;4997382;28;20045;-69
2021/12/22 05:45:42;;;;;;;25.42;16.17;;;;;;;;;;4997122;28;20037;-69
2021/12/22 05:48:09;;;;;;;27.30;16.58;;;;;;;;;;4996572;28;20042;-69
2021/12/22 05:50:34;;;;;;;30.95;18.67;;;;;;;;;;4997071;28;20503;-68
2021/12/22 05:52:59;;;;;;;31.50;18.60;;;;;;;;;;4996709;28;20512;-68
2021/12/22 05:55:25;;;;;;;30.80;17.70;;;;;;;;;;4997046;28;20037;-69
2021/12/22 05:57:50;;;;;;;31.77;17.98;;;;;;;;;;4997799;28;20030;-67
2021/12/22 06:00:16;;;;;;;31.23;17.73;;;;;;;;;;4997405;28;20078;-69
2021/12/22 06:02:41;;;;;;;28.55;16.73;;;;;;;;;;4997905;28;20038;-70
2021/12/22 06:05:07;;;;;;;30.70;18.73;;;;;;;;;;4996873;28;20054;-68
2021/12/22 06:07:32;;;;;;;30.25;17.33;;;;;;;;;;4996113;28;20031;-71
2021/12/22 06:09:57;;;;;;;29.10;16.98;;;;;;;;;;4998183;28;20041;-69
2021/12/22 06:12:23;;;;;;;31.02;16.80;;;;;;;;;;4998284;28;20053;-69
2021/12/22 06:14:48;;;;;;;30.45;17.75;;;;;;;;;;4995836;28;20449;-69
2021/12/22 06:17:14;;;;;;;25.73;16.10;;;;;;;;;;4997577;28;20453;-68
2021/12/22 06:19:39;;;;;;;28.52;16.13;;;;;;;;;;4995743;28;20123;-68
2021/12/22 06:22:04;;;;;;;29.40;16.92;;;;;;;;;;4997027;28;20365;-68
2021/12/22 06:24:30;;;;;;;34.25;17.65;;;;;;;;;;4996447;28;20484;-68
2021/12/22 06:26:56;;;;;;;34.70;17.67;;;;;;;;;;4997667;28;20068;-68
2021/12/22 06:29:22;;;;;;;32.83;16.60;;;;;;;;;;4998034;28;20033;-68
2021/12/22 06:31:47;;;;;;;32.38;19.05;;;;;;;;;;4996117;28;20073;-68
2021/12/22 06:34:13;;;;;;;31.13;17.75;;;;;;;;;;4996764;28;20068;-68
2021/12/22 06:36:38;;;;;;;27.40;15.85;;;;;;;;;;4997725;28;20061;-70
2021/12/22 06:39:03;;;;;;;33.05;18.92;;;;;;;;;;4996441;28;20109;-70
2021/12/22 06:41:30;;;;;;;27.25;16.00;;;;;;;;;;4997346;28;20188;-68
2021/12/22 06:43:56;;;;;;;34.58;17.60;;;;;;;;;;4996676;28;20048;-68
2021/12/22 06:46:21;;;;;;;30.83;17.88;;;;;;;;;;4996375;28;20030;-68
2021/12/22 06:48:46;;;;;;;30.17;17.00;;;;;;;;;;4995410;28;20546;-70
2021/12/22 06:51:12;;;;;;;30.33;17.35;;;;;;;;;;4997254;28;20033;-69
2021/12/22 06:53:37;;;;;;;31.90;17.42;;;;;;;;;;4996469;28;20072;-71
2021/12/22 06:56:02;;;;;;;32.97;17.50;;;;;;;;;;4996297;28;20036;-69
2021/12/22 06:58:28;;;;;;;33.63;16.90;;;;;;;;;;4996906;28;20026;-68
2021/12/22 07:00:54;;;;;;;31.58;17.30;;;;;;;;;;4994365;28;20066;-68
2021/12/22 07:03:19;;;;;;;31.67;17.58;;;;;;;;;;4995577;28;20033;-69
2021/12/22 07:05:44;;;;;;;33.65;17.42;;;;;;;;;;4996391;28;20057;-68
2021/12/22 07:08:10;;;;;;;34.15;17.60;;;;;;;;;;4996463;28;20060;-73
2021/12/22 07:10:35;;;;;;;29.70;17.35;;;;;;;;;;4996449;28;20066;-67
2021/12/22 07:13:00;;;;;;;30.70;16.88;;;;;;;;;;4997254;28;20115;-67
2021/12/22 07:15:26;;;;;;;34.17;18.55;;;;;;;;;;4994547;28;20068;-70
2021/12/22 07:17:51;;;;;;;30.92;18.58;;;;;;;;;;4996112;28;20034;-69
2021/12/22 07:20:16;;;;;;;38.00;19.63;;;;;;;;;;4994839;28;20068;-68
2021/12/22 07:22:42;;;;;;;36.05;19.30;;;;;;;;;;4995732;28;20038;-68
2021/12/22 07:25:08;;;;;;;34.55;18.40;;;;;;;;;;4996315;28;20112;-71
2021/12/22 07:27:33;;;;;;;36.00;19.25;;;;;;;;;;4995023;28;20041;-68
2021/12/22 07:29:59;;;;;;;36.10;18.38;;;;;;;;;;4995003;28;20038;-68
2021/12/22 07:32:24;;;;;;;35.30;19.02;;;;;;;;;;4996095;28;20038;-69
2021/12/22 07:35:03;;;;;;;33.03;18.52;;;;;;;;;;4995813;28;20575;-68
2021/12/22 07:37:42;;;;;;;33.75;19.10;;;;;;;;;;4974884;28;20104;-68
2021/12/22 07:40:12;;;;;;;34.90;17.83;;;;;;;;;;4993556;28;20038;-71
2021/12/22 07:42:38;;;;;;;39.03;18.15;;;;;;;;;;4993835;28;20499;-68
2021/12/22 07:45:03;;;;;;;34.17;18.90;;;;;;;;;;4993413;28;20033;-67
2021/12/22 07:47:29;;;;;;;34.60;18.40;;;;;;;;;;4993765;28;20049;-70
2021/12/22 07:49:54;;;;;;;33.63;18.17;;;;;;;;;;4994228;28;20160;-69
2021/12/22 07:52:19;;;;;;;33.85;18.35;;;;;;;;;;4994188;28;20116;-69
2021/12/22 07:54:45;;;;;;;32.45;16.23;;;;;;;;;;4994823;28;20034;-70
2021/12/22 07:57:10;;;;;;;30.40;17.67;;;;;;;;;;4994185;28;20476;-69
2021/12/22 07:59:35;;;;;;;32.60;17.85;;;;;;;;;;4994540;28;20053;-71
2021/12/22 08:02:01;;;;;;;37.58;16.25;;;;;;;;;;4992741;28;20034;-71
2021/12/22 08:04:26;;;;;;;28.92;15.88;;;;;;;;;;4977466;28;20092;-69
2021/12/22 08:06:51;;;;;;;33.45;17.02;;;;;;;;;;4994528;28;20101;-68
2021/12/22 08:09:17;;;;;;;30.45;16.63;;;;;;;;;;4996090;28;20096;-69
2021/12/22 08:11:42;;;;;;;27.88;16.05;;;;;;;;;;4995863;28;20034;-68
2021/12/22 08:14:07;;;;;;;34.60;18.25;;;;;;;;;;4996681;28;20053;-70
2021/12/22 08:16:33;;;;;;;30.23;15.63;;;;;;;;;;4996419;28;20064;-70
2021/12/22 08:18:58;;;;;;;29.65;17.08;;;;;;;;;;4995631;28;20120;-69
2021/12/22 08:21:23;;;;;;;29.42;16.70;;;;;;;;;;4995971;28;20481;-69
2021/12/22 08:23:49;;;;;;;30.10;16.35;;;;;;;;;;4995437;28;20061;-69
2021/12/22 08:26:14;;;;;;;31.35;17.15;;;;;;;;;;4993923;28;20069;-71
2021/12/22 08:28:39;;;;;;;30.88;18.23;;;;;;;;;;4996253;28;20101;-70
2021/12/22 08:31:05;;;;;;;35.10;17.38;;;;;;;;;;4998031;28;20120;-69
2021/12/22 08:33:32;;;;;;;29.58;16.13;;;;;;;;;;4996340;28;20041;-69
2021/12/22 08:38:51;;;;;;;;;;;;;;;;;;4994734;28;20124;-69
2021/12/22 08:41:18;;;;;;;34.00;18.00;;;;;;;;;;4995096;28;19918;-69
2021/12/22 08:43:43;;;;;;;34.38;16.38;;;;;;;;;;4993179;28;20037;-71
2021/12/22 08:46:09;;;;;;;29.70;16.33;;;;;;;;;;4995509;28;20117;-70
2021/12/22 08:48:34;;;;;;;33.17;17.88;;;;;;;;;;4996733;28;20057;-69
2021/12/22 08:50:59;;;;;;;26.30;14.90;;;;;;;;;;4995979;28;20025;-70
2021/12/22 08:53:25;;;;;;;26.38;14.88;;;;;;;;;;5012231;28;20028;-69
2021/12/22 08:55:50;;;;;;;24.55;14.23;;;;;;;;;;4997874;28;20026;-68
2021/12/22 08:58:15;;;;;;;32.28;17.52;;;;;;;;;;4996797;28;20033;-69
2021/12/22 09:00:41;;;;;;;30.88;16.60;;;;;;;;;;4995571;28;20031;-69
2021/12/22 09:03:06;;;;;;;30.55;16.95;;;;;;;;;;4978174;28;20036;-70
2021/12/22 09:05:31;;;;;;;25.83;14.43;;;;;;;;;;4997175;28;20018;-68
2021/12/22 09:07:57;;;;;;;25.30;14.52;;;;;;;;;;4998628;28;20026;-68
2021/12/22 09:10:22;;;;;;;29.27;14.93;;;;;;;;;;4998665;28;20084;-69
2021/12/22 09:12:47;;;;;;;27.25;14.75;;;;;;;;;;4994997;28;20033;-69
2021/12/22 09:15:13;;;;;;;23.75;13.88;;;;;;;;;;4996477;28;20036;-69
2021/12/22 09:17:38;;;;;;;25.38;14.13;;;;;;;;;;4996359;28;20026;-69
2021/12/22 09:20:04;;;;;;;26.90;14.35;;;;;;;;;;4998754;28;20068;-69
2021/12/22 09:22:29;;;;;;;25.98;14.63;;;;;;;;;;4997148;28;20057;-71
2021/12/22 09:24:54;;;;;;;30.15;16.30;;;;;;;;;;4995348;28;20395;-69
2021/12/22 09:27:20;;;;;;;32.88;18.05;;;;;;;;;;4997691;28;20088;-69
2021/12/22 09:29:45;;;;;;;24.35;13.27;;;;;;;;;;4997957;28;20423;-69
2021/12/22 09:32:14;;;;;;;27.08;14.57;;;;;;;;;;4997327;28;20485;-69
2021/12/22 09:34:40;;;;;;;24.45;14.30;;;;;;;;;;4997352;28;20239;-69
2021/12/22 09:37:06;;;;;;;23.55;13.48;;;;;;;;;;4997932;28;20026;-69
2021/12/22 09:39:31;;;;;;;24.67;14.27;;;;;;;;;;4997032;28;20056;-68
2021/12/22 09:41:57;;;;;;;27.65;15.75;;;;;;;;;;4996259;28;20095;-70
2021/12/22 09:44:23;;;;;;;28.90;15.50;;;;;;;;;;4997626;28;20081;-69
2021/12/22 09:46:52;;;;;;;26.45;14.48;;;;;;;;;;4993328;28;20036;-70
2021/12/22 09:49:37;;;;;;;23.33;14.15;;;;;;;;;;4993218;28;20021;-69
2021/12/22 09:52:23;;;;;;;22.60;13.02;;;;;;;;;;4992906;28;20026;-68
2021/12/22 09:54:50;;;;;;;26.92;14.38;;;;;;;;;;4995918;28;20072;-69
2021/12/22 09:57:17;;;;;;;22.38;13.95;;;;;;;;;;4997239;28;20022;-68
2021/12/22 09:59:42;;;;;;;25.98;14.15;;;;;;;;;;4998669;28;20026;-70
2021/12/22 10:02:08;;;;;;;24.65;14.18;;;;;;;;;;4996346;28;20030;-69
2021/12/22 10:04:33;;;;;;;28.77;14.23;;;;;;;;;;4999236;28;20048;-71
2021/12/22 10:06:59;;;;;;;23.48;12.95;;;;;;;;;;4998014;28;20066;-68
2021/12/22 10:09:25;;;;;;;23.52;13.65;;;;;;;;;;4997304;28;20021;-69
2021/12/22 10:11:51;;;;;;;25.33;14.02;;;;;;;;;;4997199;28;20034;-70
2021/12/22 10:14:22;;;;;;;23.95;13.45;;;;;;;;;;4997628;28;20041;-69
2021/12/22 10:16:51;;;;;;;21.08;12.95;;;;;;;;;;4996903;28;20026;-69
2021/12/22 10:19:16;;;;;;;23.95;13.70;;;;;;;;;;4981029;28;20126;-69
2021/12/22 10:21:53;;;;;;;24.00;14.30;;;;;;;;;;4980459;28;20110;-70
2021/12/22 10:24:21;;;;;;;24.00;14.07;;;;;;;;;;4997778;28;20040;-69
2021/12/22 10:26:46;;;;;;;24.15;14.05;;;;;;;;;;4995932;28;20109;-70
2021/12/22 10:29:11;;;;;;;23.95;13.48;;;;;;;;;;4997986;28;20108;-71
2021/12/22 10:31:37;;;;;;;21.75;13.00;;;;;;;;;;4996498;28;20114;-69
2021/12/22 10:34:11;;;;;;;24.40;12.65;;;;;;;;;;4997146;28;20025;-69
2021/12/22 10:36:47;;;;;;;29.67;14.30;;;;;;;;;;4997373;28;20049;-69
2021/12/22 10:39:21;;;;;;;22.98;13.57;;;;;;;;;;4996372;28;20492;-69
2021/12/22 10:41:47;;;;;;;25.55;13.73;;;;;;;;;;4996618;28;20033;-73
2021/12/22 10:44:12;;;;;;;27.15;14.57;;;;;;;;;;4997449;28;20028;-69
2021/12/22 10:46:37;;;;;;;29.52;15.30;;;;;;;;;;4997214;28;20149;-69
2021/12/22 10:49:17;;;;;;;24.45;14.18;;;;;;;;;;4996887;28;21169;-69
2021/12/22 10:51:45;;;;;;;24.58;15.25;;;;;;;;;;4983764;28;20650;-71
2021/12/22 10:54:12;;;;;;;24.98;15.63;;;;;;;;;;4996001;28;20072;-69
2021/12/22 10:56:40;;;;;;;27.50;14.80;;;;;;;;;;4994972;28;20027;-68
2021/12/22 10:59:09;;;;;;;27.45;16.25;;;;;;;;;;4995717;28;20069;-68
2021/12/22 11:01:35;;;;;;;27.88;16.13;;;;;;;;;;4994296;28;20046;-70
2021/12/22 11:04:03;;;;;;;29.73;17.13;;;;;;;;;;4967799;28;20365;-69
2021/12/22 11:06:34;;;;;;;26.25;15.85;;;;;;;;;;4995098;28;20101;-70
2021/12/22 11:09:04;;;;;;;28.55;15.75;;;;;;;;;;4995581;28;20041;-69
2021/12/22 11:11:36;;;;;;;31.83;16.35;;;;;;;;;;4992980;28;20026;-69
2021/12/22 11:14:03;;;;;;;26.85;16.08;;;;;;;;;;4995169;28;20022;-70
2021/12/22 11:16:29;;;;;;;29.35;15.95;;;;;;;;;;4979545;28;20018;-70
2021/12/22 11:18:54;;;;;;;26.65;15.80;;;;;;;;;;4994298;28;20021;-69
2021/12/22 11:21:27;;;;;;;32.05;15.70;;;;;;;;;;4994033;28;20113;-70
2021/12/22 11:23:52;;;;;;;33.42;16.52;;;;;;;;;;4996832;28;20038;-69
2021/12/22 11:26:18;;;;;;;30.40;15.88;;;;;;;;;;4995402;28;20033;-69
2021/12/22 11:28:43;;;;;;;30.73;17.05;;;;;;;;;;4996428;28;20030;-69
2021/12/22 11:31:09;;;;;;;29.95;17.05;;;;;;;;;;4995103;28;20034;-71
2021/12/22 11:33:34;;;;;;;27.73;16.40;;;;;;;;;;4996344;28;20473;-70
2021/12/22 11:36:00;;;;;;;31.17;16.33;;;;;;;;;;4997216;28;20022;-70
2021/12/22 11:38:26;;;;;;;29.80;17.15;;;;;;;;;;4996442;28;20026;-70
2021/12/22 11:41:02;;;;;;;29.60;16.08;;;;;;;;;;4996465;28;20030;-70
2021/12/22 11:43:27;;;;;;;30.85;16.50;;;;;;;;;;4997417;28;20037;-68
2021/12/22 11:45:53;;;;;;;27.80;15.52;;;;;;;;;;4996454;28;20057;-70
2021/12/22 11:48:18;;;;;;;30.00;15.60;;;;;;;;;;4979840;28;20030;-70
2021/12/22 11:50:47;;;;;;;27.73;15.63;;;;;;;;;;4997870;28;20037;-68
2021/12/22 11:53:12;;;;;;;26.33;15.32;;;;;;;;;;4996765;28;20077;-68
2021/12/22 11:55:40;;;;;;;23.45;14.18;;;;;;;;;;4995275;28;20033;-69
2021/12/22 11:58:29;;;;;;;27.90;15.45;;;;;;;;;;4993766;28;20556;-68
2021/12/22 12:00:59;;;;;;;27.10;15.82;;;;;;;;;;4993743;28;20037;-68
2021/12/22 12:03:46;;;;;;;24.98;14.23;;;;;;;;;;4997536;28;20388;-68
2021/12/22 12:06:23;;;;;;;29.63;15.00;;;;;;;;;;4999566;28;20037;-69
2021/12/22 12:08:55;;;;;;;22.30;14.32;;;;;;;;;;5000482;28;20025;-68
2021/12/22 12:11:34;;;;;;;25.75;15.18;;;;;;;;;;5000846;28;20065;-68
2021/12/22 12:14:08;;;;;;;26.85;14.98;;;;;;;;;;5000305;28;20694;-68
2021/12/22 12:22:20;;;;;;;22.88;13.68;;;;;;;;;;4999984;28;20556;-68
2021/12/22 12:25:09;;;;;;;22.38;13.27;;;;;;;;;;5000046;28;20045;-68
2021/12/22 12:27:40;;;;;;;23.85;14.23;;;;;;;;;;4999455;28;20525;-68
2021/12/22 12:30:13;;;;;;;23.33;13.95;;;;;;;;;;4998795;28;20400;-68
2021/12/22 12:32:38;;;;;;;24.80;15.00;;;;;;;;;;4998597;28;20163;-67
2021/12/22 12:35:28;;;;;;;24.35;13.85;;;;;;;;;;5000229;28;20084;-68
2021/12/22 12:38:16;;;;;;;22.05;13.98;;;;;;;;;;4999117;28;20027;-68
2021/12/22 12:41:00;;;;;;;25.40;15.15;;;;;;;;;;5000092;28;20495;-68
2021/12/22 12:43:40;;;;;;;23.30;13.73;;;;;;;;;;4998975;28;20094;-68
2021/12/22 12:46:25;;;;;;;22.63;13.00;;;;;;;;;;4997880;28;20600;-68
2021/12/22 12:49:06;;;;;;;30.63;14.25;;;;;;;;;;4998133;28;20038;-68
2021/12/22 12:51:37;;;;;;;22.45;13.70;;;;;;;;;;4996618;28;20065;-68
2021/12/22 12:54:07;;;;;;;25.90;13.95;;;;;;;;;;4997692;28;20026;-67
2021/12/22 12:56:40;;;;;;;19.77;12.88;;;;;;;;;;4996598;28;20596;-67
2021/12/22 12:59:09;;;;;;;21.95;14.02;;;;;;;;;;4996402;28;20140;-67
2021/12/22 13:01:46;;;;;;;18.60;12.95;;;;;;;;;;4996782;28;20042;-67
2021/12/22 13:04:34;;;;;;;21.58;13.23;;;;;;;;;;4996410;28;20468;-68
2021/12/22 13:07:04;;;;;;;21.27;13.32;;;;;;;;;;4998229;28;20053;-67
2021/12/22 13:09:35;;;;;;;21.80;13.23;;;;;;;;;;4998369;28;20111;-68
2021/12/22 13:12:10;;;;;;;21.10;12.65;;;;;;;;;;4997433;28;20041;-68
2021/12/22 13:17:26;;;;;;;20.95;13.07;;;;;;;;;;4998310;28;20041;-68
2021/12/22 13:19:55;;;;;;;21.45;12.45;;;;;;;;;;4997355;28;20518;-68
2021/12/22 13:22:27;;;;;;;26.58;12.57;;;;;;;;;;4996178;28;20033;-68
2021/12/22 13:25:08;;;;;;;17.52;12.27;;;;;;;;;;4993897;28;20092;-68
2021/12/22 13:27:33;;;;;;;16.33;12.13;;;;;;;;;;4994303;28;20037;-68
2021/12/22 13:30:17;;;;;;;18.42;11.93;;;;;;;;;;4995429;28;20033;-68
2021/12/22 13:33:01;;;;;;;16.88;11.13;;;;;;;;;;4990280;28;20050;-68
2021/12/22 13:35:49;;;;;;;15.65;11.60;;;;;;;;;;4993801;28;20042;-68
2021/12/22 13:38:28;;;;;;;17.27;11.82;;;;;;;;;;4998187;28;20057;-68
2021/12/22 13:41:09;;;;;;;16.15;11.82;;;;;;;;;;4995064;28;20041;-68
2021/12/22 13:43:41;;;;;;;17.80;11.40;;;;;;;;;;4994660;28;20042;-68
2021/12/22 13:46:12;;;;;;;14.20;10.98;;;;;;;;;;4992574;28;20038;-68
2021/12/22 13:49:00;;;;;;;16.23;11.77;;;;;;;;;;4996226;28;20026;-68
2021/12/22 13:51:34;;;;;;;15.15;11.48;;;;;;;;;;4995400;28;20397;-68
2021/12/22 13:54:00;;;;;;;;;;;;;;;;;;4996929;28;20032;-66
2021/12/22 13:56:26;;;;;;;13.13;10.40;;;;;;;;;;4995355;28;19913;-66
2021/12/22 13:58:59;;;;;;;16.30;11.43;;;;;;;;;;4991018;28;20153;-66
2021/12/22 14:01:35;;;;;;;16.05;11.00;;;;;;;;;;4991291;28;20057;-66
2021/12/22 14:04:01;;;;;;;14.60;10.80;;;;;;;;;;4996813;28;20547;-68
2021/12/22 14:06:31;;;;;;;14.40;10.32;;;;;;;;;;4996295;28;20117;-68
2021/12/22 14:09:07;;;;;;;15.13;10.10;;;;;;;;;;4993558;28;20123;-66
2021/12/22 14:11:37;;;;;;;14.30;10.90;;;;;;;;;;4995641;28;20469;-66
2021/12/22 14:14:21;;;;;;;14.07;11.15;;;;;;;;;;4994728;28;20018;-66
2021/12/22 14:16:47;;;;;;;14.52;9.05;;;;;;;;;;4995254;28;20041;-66
2021/12/22 14:19:22;;;;;;;14.15;10.07;;;;;;;;;;4996088;28;20031;-66
2021/12/22 14:21:49;;;;;;;15.48;11.10;;;;;;;;;;4997112;28;20029;-68
2021/12/22 14:24:19;;;;;;;14.00;10.50;;;;;;;;;;4996391;28;20030;-68
2021/12/22 14:26:48;;;;;;;13.73;10.40;;;;;;;;;;4997295;28;20492;-68
2021/12/22 14:29:13;;;;;;;14.00;10.23;;;;;;;;;;4996040;28;20041;-68
2021/12/22 14:31:57;;;;;;;15.20;10.40;;;;;;;;;;4992875;28;20080;-68
2021/12/22 14:34:23;;;;;;;13.88;9.35;;;;;;;;;;4996314;28;20037;-68
2021/12/22 14:36:49;;;;;;;16.20;10.05;;;;;;;;;;4993685;28;20288;-68
2021/12/22 14:39:14;;;;;;;14.05;9.43;;;;;;;;;;4994085;28;20034;-68
2021/12/22 14:41:40;;;;;;;13.65;9.27;;;;;;;;;;4988693;28;20050;-68
2021/12/22 14:44:24;;;;;;;13.50;9.10;;;;;;;;;;4995202;28;20523;-68
2021/12/22 14:46:51;;;;;;;15.10;9.75;;;;;;;;;;4960329;28;20037;-67